首页
METAR-TAF:

METAR-TAF

机场 :

恰斯拉夫, 捷克共和国

纬度: 49-56-23N, 经度: 15-22-55E, 海拔: 242米

当前天气观测

该预报发布于22分钟前的03:00 UTC
风速17节,风向西转西北
温度 8°C
湿度 93%
气压 994 hPa
能見度: 7000
多云层高于700英尺
阴天层高于1600英尺
小雨

METAR: LKCV 260300Z 29017KT 7000 -RA BKN007 OVC016 08/07 Q0994 NOSIG RMK GRN GRN

时间: 05:22 (03:22 UTC)

预报

该预报发布于4小时和22分钟前的23:00 UTC
预报有效从26日的 00点(UTC)到 27日的 00点(UTC)
风速14节,风向西
能見度: 8000
多云层高于800英尺
阴天层高于1500英尺
短暂存在
从 26日的 00点(UTC)到 26日的 10点(UTC)
风速16节,风向西北,有时为30节阵风
能見度: 4000
多云层高于500英尺
阴天层高于1000英尺
成为
从 26日的 15点(UTC)到 26日的 17点(UTC)
风速8节,风向西转西南
能见度10公里或以上
多云层高于3000英尺

TAF: LKCV 252300Z 2600/2700 28014KT 8000 RA BKN008 OVC015 TEMPO 2600/2610 32016G30KT 4000 RA BKN005 OVC010 BECMG 2615/2617 24008KT 9999 NSW BKN030

超过4000个机场的气象观测和天气预报(METAR&TAF报告)。

可查询的气象台以黄色和红色小点在地图上表示。

将鼠标移到小点上方,可查看气象台名称。

然后点击查看天气观测和预报。

如需切换地图:点击带黑十字的绿色按钮放大地图;点击带横线的绿色按钮缩小地图;或者点击绿色箭头查看邻近地区的地图。


METAR-TAF: